sensor_id;sensor_type;location;lat;lon;timestamp;P1;durP1;ratioP1;P2;durP2;ratioP2
67941;SDS011;54731;42.600;23.476;2022-07-22T00:01:00;8.75;;;3.70;;
67941;SDS011;54731;42.600;23.476;2022-07-22T00:03:26;5.90;;;4.00;;
67941;SDS011;54731;42.600;23.476;2022-07-22T00:05:51;5.13;;;3.38;;
67941;SDS011;54731;42.600;23.476;2022-07-22T00:08:17;4.90;;;3.20;;
67941;SDS011;54731;42.600;23.476;2022-07-22T00:10:43;4.53;;;3.60;;
67941;SDS011;54731;42.600;23.476;2022-07-22T00:13:08;4.85;;;3.28;;
67941;SDS011;54731;42.600;23.476;2022-07-22T00:15:34;6.97;;;3.70;;
67941;SDS011;54731;42.600;23.476;2022-07-22T00:17:59;6.93;;;4.50;;
67941;SDS011;54731;42.600;23.476;2022-07-22T00:20:25;7.20;;;3.93;;
67941;SDS011;54731;42.600;23.476;2022-07-22T00:22:50;7.53;;;3.40;;
67941;SDS011;54731;42.600;23.476;2022-07-22T00:25:16;5.80;;;3.50;;
67941;SDS011;54731;42.600;23.476;2022-07-22T00:27:41;7.90;;;3.90;;
67941;SDS011;54731;42.600;23.476;2022-07-22T00:30:07;9.00;;;4.07;;
67941;SDS011;54731;42.600;23.476;2022-07-22T00:32:33;5.22;;;3.90;;
67941;SDS011;54731;42.600;23.476;2022-07-22T00:34:58;5.67;;;3.60;;
67941;SDS011;54731;42.600;23.476;2022-07-22T00:37:24;7.45;;;3.80;;
67941;SDS011;54731;42.600;23.476;2022-07-22T00:39:49;6.83;;;3.57;;
67941;SDS011;54731;42.600;23.476;2022-07-22T00:42:15;8.73;;;3.83;;
67941;SDS011;54731;42.600;23.476;2022-07-22T00:44:40;6.00;;;3.83;;
67941;SDS011;54731;42.600;23.476;2022-07-22T00:47:06;6.05;;;3.75;;
67941;SDS011;54731;42.600;23.476;2022-07-22T00:49:32;12.40;;;4.60;;
67941;SDS011;54731;42.600;23.476;2022-07-22T00:51:57;7.75;;;4.13;;
67941;SDS011;54731;42.600;23.476;2022-07-22T00:54:23;8.17;;;4.37;;
67941;SDS011;54731;42.600;23.476;2022-07-22T00:56:48;8.70;;;3.70;;
67941;SDS011;54731;42.600;23.476;2022-07-22T00:59:14;7.05;;;3.80;;
67941;SDS011;54731;42.600;23.476;2022-07-22T01:01:40;6.93;;;3.75;;
67941;SDS011;54731;42.600;23.476;2022-07-22T01:04:05;8.32;;;4.05;;
67941;SDS011;54731;42.600;23.476;2022-07-22T01:06:31;7.30;;;3.90;;
67941;SDS011;54731;42.600;23.476;2022-07-22T01:08:57;7.32;;;3.75;;
67941;SDS011;54731;42.600;23.476;2022-07-22T01:11:23;7.63;;;3.70;;
67941;SDS011;54731;42.600;23.476;2022-07-22T01:13:49;8.55;;;4.20;;
67941;SDS011;54731;42.600;23.476;2022-07-22T01:16:16;8.63;;;3.80;;
67941;SDS011;54731;42.600;23.476;2022-07-22T01:18:42;6.53;;;3.75;;
67941;SDS011;54731;42.600;23.476;2022-07-22T01:21:09;7.88;;;3.80;;
67941;SDS011;54731;42.600;23.476;2022-07-22T01:23:35;6.30;;;3.70;;
67941;SDS011;54731;42.600;23.476;2022-07-22T01:26:01;12.55;;;4.10;;
67941;SDS011;54731;42.600;23.476;2022-07-22T01:28:28;8.50;;;4.00;;
67941;SDS011;54731;42.600;23.476;2022-07-22T01:30:53;6.03;;;4.07;;
67941;SDS011;54731;42.600;23.476;2022-07-22T01:33:19;7.20;;;3.90;;
67941;SDS011;54731;42.600;23.476;2022-07-22T01:35:46;8.18;;;3.97;;
67941;SDS011;54731;42.600;23.476;2022-07-22T01:38:12;6.53;;;3.90;;
67941;SDS011;54731;42.600;23.476;2022-07-22T01:40:38;5.32;;;4.07;;
67941;SDS011;54731;42.600;23.476;2022-07-22T01:43:04;5.55;;;3.80;;
67941;SDS011;54731;42.600;23.476;2022-07-22T01:45:29;8.63;;;3.50;;
67941;SDS011;54731;42.600;23.476;2022-07-22T01:47:55;6.47;;;4.07;;
67941;SDS011;54731;42.600;23.476;2022-07-22T01:50:20;9.97;;;3.87;;
67941;SDS011;54731;42.600;23.476;2022-07-22T01:52:46;9.23;;;4.10;;
67941;SDS011;54731;42.600;23.476;2022-07-22T01:55:11;11.83;;;3.83;;
67941;SDS011;54731;42.600;23.476;2022-07-22T01:57:37;8.75;;;3.83;;
67941;SDS011;54731;42.600;23.476;2022-07-22T02:00:07;6.10;;;3.92;;
67941;SDS011;54731;42.600;23.476;2022-07-22T02:02:34;9.75;;;4.30;;
67941;SDS011;54731;42.600;23.476;2022-07-22T02:05:00;7.75;;;3.92;;
67941;SDS011;54731;42.600;23.476;2022-07-22T02:07:27;8.65;;;4.10;;
67941;SDS011;54731;42.600;23.476;2022-07-22T02:09:53;9.77;;;4.50;;
67941;SDS011;54731;42.600;23.476;2022-07-22T02:12:18;8.25;;;4.00;;
67941;SDS011;54731;42.600;23.476;2022-07-22T02:14:44;7.95;;;4.15;;
67941;SDS011;54731;42.600;23.476;2022-07-22T02:17:11;12.00;;;3.90;;
67941;SDS011;54731;42.600;23.476;2022-07-22T02:19:36;7.28;;;4.10;;
67941;SDS011;54731;42.600;23.476;2022-07-22T02:22:02;10.93;;;3.90;;
67941;SDS011;54731;42.600;23.476;2022-07-22T02:24:27;8.77;;;4.70;;
67941;SDS011;54731;42.600;23.476;2022-07-22T02:26:53;6.10;;;3.93;;
67941;SDS011;54731;42.600;23.476;2022-07-22T02:29:18;6.43;;;4.30;;
67941;SDS011;54731;42.600;23.476;2022-07-22T02:31:43;7.45;;;3.80;;
67941;SDS011;54731;42.600;23.476;2022-07-22T02:34:09;8.30;;;4.30;;
67941;SDS011;54731;42.600;23.476;2022-07-22T02:36:34;8.00;;;4.03;;
67941;SDS011;54731;42.600;23.476;2022-07-22T02:39:00;9.00;;;4.10;;
67941;SDS011;54731;42.600;23.476;2022-07-22T02:41:25;10.23;;;4.13;;
67941;SDS011;54731;42.600;23.476;2022-07-22T02:43:51;6.67;;;4.57;;
67941;SDS011;54731;42.600;23.476;2022-07-22T02:46:19;8.02;;;4.20;;
67941;SDS011;54731;42.600;23.476;2022-07-22T02:48:46;9.90;;;4.60;;
67941;SDS011;54731;42.600;23.476;2022-07-22T02:51:11;6.05;;;4.00;;
67941;SDS011;54731;42.600;23.476;2022-07-22T02:53:37;9.33;;;4.20;;
67941;SDS011;54731;42.600;23.476;2022-07-22T02:56:02;7.80;;;4.00;;
67941;SDS011;54731;42.600;23.476;2022-07-22T02:58:28;12.93;;;3.90;;
67941;SDS011;54731;42.600;23.476;2022-07-22T03:00:53;5.95;;;3.90;;
67941;SDS011;54731;42.600;23.476;2022-07-22T03:03:19;8.50;;;4.07;;
67941;SDS011;54731;42.600;23.476;2022-07-22T03:05:44;9.67;;;4.00;;
67941;SDS011;54731;42.600;23.476;2022-07-22T03:08:10;7.00;;;4.68;;
67941;SDS011;54731;42.600;23.476;2022-07-22T03:10:36;11.47;;;4.53;;
67941;SDS011;54731;42.600;23.476;2022-07-22T03:13:02;9.55;;;3.80;;
67941;SDS011;54731;42.600;23.476;2022-07-22T03:15:27;8.07;;;3.90;;
67941;SDS011;54731;42.600;23.476;2022-07-22T03:17:53;7.00;;;3.67;;
67941;SDS011;54731;42.600;23.476;2022-07-22T03:20:18;11.67;;;4.10;;
67941;SDS011;54731;42.600;23.476;2022-07-22T03:22:43;7.88;;;4.57;;
67941;SDS011;54731;42.600;23.476;2022-07-22T03:25:09;8.88;;;4.10;;
67941;SDS011;54731;42.600;23.476;2022-07-22T03:27:36;9.25;;;4.35;;
67941;SDS011;54731;42.600;23.476;2022-07-22T03:30:02;11.57;;;4.33;;
67941;SDS011;54731;42.600;23.476;2022-07-22T03:32:29;12.35;;;4.28;;
67941;SDS011;54731;42.600;23.476;2022-07-22T03:34:55;11.53;;;4.27;;
67941;SDS011;54731;42.600;23.476;2022-07-22T03:37:20;9.20;;;4.28;;
67941;SDS011;54731;42.600;23.476;2022-07-22T03:39:46;5.82;;;3.95;;
67941;SDS011;54731;42.600;23.476;2022-07-22T03:42:11;9.43;;;4.00;;
67941;SDS011;54731;42.600;23.476;2022-07-22T03:44:37;8.03;;;4.13;;
67941;SDS011;54731;42.600;23.476;2022-07-22T03:47:02;10.15;;;4.57;;
67941;SDS011;54731;42.600;23.476;2022-07-22T03:49:28;8.90;;;4.30;;
67941;SDS011;54731;42.600;23.476;2022-07-22T03:51:54;14.25;;;4.63;;
67941;SDS011;54731;42.600;23.476;2022-07-22T03:54:20;9.87;;;3.93;;
67941;SDS011;54731;42.600;23.476;2022-07-22T03:56:46;7.43;;;4.00;;
67941;SDS011;54731;42.600;23.476;2022-07-22T03:59:11;7.90;;;4.43;;
67941;SDS011;54731;42.600;23.476;2022-07-22T04:01:36;9.93;;;4.43;;
67941;SDS011;54731;42.600;23.476;2022-07-22T04:04:02;7.17;;;4.60;;
67941;SDS011;54731;42.600;23.476;2022-07-22T04:06:27;10.02;;;4.72;;
67941;SDS011;54731;42.600;23.476;2022-07-22T04:08:53;9.80;;;4.57;;
67941;SDS011;54731;42.600;23.476;2022-07-22T04:11:19;9.20;;;4.80;;
67941;SDS011;54731;42.600;23.476;2022-07-22T04:13:45;19.10;;;5.43;;
67941;SDS011;54731;42.600;23.476;2022-07-22T04:16:11;14.45;;;5.18;;
67941;SDS011;54731;42.600;23.476;2022-07-22T04:18:36;12.35;;;4.93;;
67941;SDS011;54731;42.600;23.476;2022-07-22T04:21:02;8.20;;;4.70;;
67941;SDS011;54731;42.600;23.476;2022-07-22T04:23:28;10.80;;;4.50;;
67941;SDS011;54731;42.600;23.476;2022-07-22T04:25:53;8.43;;;5.17;;
67941;SDS011;54731;42.600;23.476;2022-07-22T04:28:19;10.30;;;6.50;;
67941;SDS011;54731;42.600;23.476;2022-07-22T04:30:44;21.55;;;10.98;;
67941;SDS011;54731;42.600;23.476;2022-07-22T04:33:10;32.53;;;13.80;;
67941;SDS011;54731;42.600;23.476;2022-07-22T04:35:35;35.33;;;13.50;;
67941;SDS011;54731;42.600;23.476;2022-07-22T04:38:01;27.97;;;14.10;;
67941;SDS011;54731;42.600;23.476;2022-07-22T04:40:26;23.15;;;11.68;;
67941;SDS011;54731;42.600;23.476;2022-07-22T04:42:52;22.83;;;11.47;;
67941;SDS011;54731;42.600;23.476;2022-07-22T04:45:17;20.77;;;11.33;;
67941;SDS011;54731;42.600;23.476;2022-07-22T04:47:43;24.40;;;11.57;;
67941;SDS011;54731;42.600;23.476;2022-07-22T04:50:08;23.17;;;11.50;;
67941;SDS011;54731;42.600;23.476;2022-07-22T04:52:34;27.07;;;11.90;;
67941;SDS011;54731;42.600;23.476;2022-07-22T04:54:59;22.00;;;11.13;;
67941;SDS011;54731;42.600;23.476;2022-07-22T04:57:25;31.83;;;11.27;;
67941;SDS011;54731;42.600;23.476;2022-07-22T04:59:51;22.63;;;10.52;;
67941;SDS011;54731;42.600;23.476;2022-07-22T05:02:20;24.07;;;10.60;;
67941;SDS011;54731;42.600;23.476;2022-07-22T05:04:45;23.33;;;11.20;;
67941;SDS011;54731;42.600;23.476;2022-07-22T05:07:11;18.97;;;10.37;;
67941;SDS011;54731;42.600;23.476;2022-07-22T05:09:37;17.20;;;9.70;;
67941;SDS011;54731;42.600;23.476;2022-07-22T05:12:03;16.53;;;9.23;;
67941;SDS011;54731;42.600;23.476;2022-07-22T05:14:28;15.05;;;8.18;;
67941;SDS011;54731;42.600;23.476;2022-07-22T05:16:54;14.13;;;7.73;;
67941;SDS011;54731;42.600;23.476;2022-07-22T05:19:19;12.40;;;7.17;;
67941;SDS011;54731;42.600;23.476;2022-07-22T05:21:45;16.13;;;7.30;;
67941;SDS011;54731;42.600;23.476;2022-07-22T05:24:10;18.93;;;7.37;;
67941;SDS011;54731;42.600;23.476;2022-07-22T05:26:36;15.13;;;7.53;;
67941;SDS011;54731;42.600;23.476;2022-07-22T05:29:02;17.10;;;7.30;;
67941;SDS011;54731;42.600;23.476;2022-07-22T05:31:27;15.07;;;7.13;;
67941;SDS011;54731;42.600;23.476;2022-07-22T05:33:53;12.27;;;7.00;;
67941;SDS011;54731;42.600;23.476;2022-07-22T05:36:18;14.63;;;7.93;;
67941;SDS011;54731;42.600;23.476;2022-07-22T05:38:44;12.63;;;7.13;;
67941;SDS011;54731;42.600;23.476;2022-07-22T05:41:09;16.97;;;6.63;;
67941;SDS011;54731;42.600;23.476;2022-07-22T05:43:35;17.90;;;7.78;;
67941;SDS011;54731;42.600;23.476;2022-07-22T05:46:00;16.20;;;7.20;;
67941;SDS011;54731;42.600;23.476;2022-07-22T05:48:26;12.67;;;7.10;;
67941;SDS011;54731;42.600;23.476;2022-07-22T05:50:51;18.83;;;7.75;;
67941;SDS011;54731;42.600;23.476;2022-07-22T05:53:17;18.33;;;7.23;;
67941;SDS011;54731;42.600;23.476;2022-07-22T05:55:42;9.13;;;6.33;;
67941;SDS011;54731;42.600;23.476;2022-07-22T05:58:08;14.95;;;7.13;;
67941;SDS011;54731;42.600;23.476;2022-07-22T06:00:33;35.03;;;7.32;;
67941;SDS011;54731;42.600;23.476;2022-07-22T06:02:59;15.87;;;6.33;;
67941;SDS011;54731;42.600;23.476;2022-07-22T06:05:25;14.18;;;6.70;;
67941;SDS011;54731;42.600;23.476;2022-07-22T06:07:50;12.03;;;5.87;;
67941;SDS011;54731;42.600;23.476;2022-07-22T06:10:16;13.07;;;6.07;;
67941;SDS011;54731;42.600;23.476;2022-07-22T06:12:41;18.80;;;6.00;;
67941;SDS011;54731;42.600;23.476;2022-07-22T06:15:06;9.63;;;5.80;;
67941;SDS011;54731;42.600;23.476;2022-07-22T06:17:32;11.40;;;5.80;;
67941;SDS011;54731;42.600;23.476;2022-07-22T06:19:57;14.60;;;5.77;;
67941;SDS011;54731;42.600;23.476;2022-07-22T06:22:23;12.07;;;6.13;;
67941;SDS011;54731;42.600;23.476;2022-07-22T06:24:49;14.40;;;6.30;;
67941;SDS011;54731;42.600;23.476;2022-07-22T06:27:14;9.30;;;6.00;;
67941;SDS011;54731;42.600;23.476;2022-07-22T06:29:40;11.45;;;5.50;;
67941;SDS011;54731;42.600;23.476;2022-07-22T06:32:06;14.07;;;5.70;;
67941;SDS011;54731;42.600;23.476;2022-07-22T06:34:32;9.70;;;5.60;;
67941;SDS011;54731;42.600;23.476;2022-07-22T06:36:58;11.83;;;5.73;;
67941;SDS011;54731;42.600;23.476;2022-07-22T06:39:23;9.27;;;5.97;;
67941;SDS011;54731;42.600;23.476;2022-07-22T06:41:48;12.17;;;5.90;;
67941;SDS011;54731;42.600;23.476;2022-07-22T06:44:14;10.87;;;5.83;;
67941;SDS011;54731;42.600;23.476;2022-07-22T06:46:39;15.33;;;5.70;;
67941;SDS011;54731;42.600;23.476;2022-07-22T06:49:05;9.17;;;5.67;;
67941;SDS011;54731;42.600;23.476;2022-07-22T06:51:31;12.68;;;5.97;;
67941;SDS011;54731;42.600;23.476;2022-07-22T06:53:57;13.52;;;5.53;;
67941;SDS011;54731;42.600;23.476;2022-07-22T06:56:22;10.90;;;5.57;;
67941;SDS011;54731;42.600;23.476;2022-07-22T06:58:48;12.23;;;5.60;;
67941;SDS011;54731;42.600;23.476;2022-07-22T07:01:13;8.85;;;5.32;;
67941;SDS011;54731;42.600;23.476;2022-07-22T07:03:39;14.77;;;5.47;;
67941;SDS011;54731;42.600;23.476;2022-07-22T07:06:06;11.93;;;5.57;;
67941;SDS011;54731;42.600;23.476;2022-07-22T07:08:33;15.05;;;5.60;;
67941;SDS011;54731;42.600;23.476;2022-07-22T07:10:59;8.53;;;5.50;;
67941;SDS011;54731;42.600;23.476;2022-07-22T07:13:24;18.23;;;5.23;;
67941;SDS011;54731;42.600;23.476;2022-07-22T07:15:50;10.27;;;5.43;;
67941;SDS011;54731;42.600;23.476;2022-07-22T07:18:15;10.80;;;5.45;;
67941;SDS011;54731;42.600;23.476;2022-07-22T07:20:40;13.80;;;5.50;;
67941;SDS011;54731;42.600;23.476;2022-07-22T07:23:06;11.13;;;5.67;;
67941;SDS011;54731;42.600;23.476;2022-07-22T07:25:32;11.13;;;5.40;;
67941;SDS011;54731;42.600;23.476;2022-07-22T07:27:59;9.20;;;5.32;;
67941;SDS011;54731;42.600;23.476;2022-07-22T07:30:24;12.87;;;5.70;;
67941;SDS011;54731;42.600;23.476;2022-07-22T07:32:50;16.92;;;6.00;;
67941;SDS011;54731;42.600;23.476;2022-07-22T07:35:15;12.90;;;6.40;;
67941;SDS011;54731;42.600;23.476;2022-07-22T07:37:41;13.97;;;5.43;;
67941;SDS011;54731;42.600;23.476;2022-07-22T07:40:07;13.95;;;5.82;;
67941;SDS011;54731;42.600;23.476;2022-07-22T07:42:33;10.27;;;4.90;;
67941;SDS011;54731;42.600;23.476;2022-07-22T07:44:59;9.53;;;5.30;;
67941;SDS011;54731;42.600;23.476;2022-07-22T07:47:24;12.10;;;5.72;;
67941;SDS011;54731;42.600;23.476;2022-07-22T07:49:50;11.40;;;4.68;;
67941;SDS011;54731;42.600;23.476;2022-07-22T07:52:16;10.97;;;5.40;;
67941;SDS011;54731;42.600;23.476;2022-07-22T07:54:42;15.40;;;5.55;;
67941;SDS011;54731;42.600;23.476;2022-07-22T07:57:09;12.07;;;5.40;;
67941;SDS011;54731;42.600;23.476;2022-07-22T07:59:35;14.07;;;5.40;;
67941;SDS011;54731;42.600;23.476;2022-07-22T08:02:03;11.47;;;4.90;;
67941;SDS011;54731;42.600;23.476;2022-07-22T08:04:28;10.07;;;5.10;;
67941;SDS011;54731;42.600;23.476;2022-07-22T08:06:54;12.23;;;4.95;;
67941;SDS011;54731;42.600;23.476;2022-07-22T08:09:20;10.87;;;5.13;;
67941;SDS011;54731;42.600;23.476;2022-07-22T08:11:45;11.57;;;4.57;;
67941;SDS011;54731;42.600;23.476;2022-07-22T08:14:11;10.75;;;5.05;;
67941;SDS011;54731;42.600;23.476;2022-07-22T08:16:36;9.40;;;4.93;;
67941;SDS011;54731;42.600;23.476;2022-07-22T08:19:02;11.95;;;4.85;;
67941;SDS011;54731;42.600;23.476;2022-07-22T08:21:28;7.82;;;4.80;;
67941;SDS011;54731;42.600;23.476;2022-07-22T08:23:53;7.97;;;4.50;;
67941;SDS011;54731;42.600;23.476;2022-07-22T08:26:18;12.98;;;4.25;;
67941;SDS011;54731;42.600;23.476;2022-07-22T08:28:44;10.13;;;4.10;;
67941;SDS011;54731;42.600;23.476;2022-07-22T08:31:09;8.93;;;3.87;;
67941;SDS011;54731;42.600;23.476;2022-07-22T08:33:35;9.68;;;3.78;;
67941;SDS011;54731;42.600;23.476;2022-07-22T08:36:00;7.23;;;4.13;;
67941;SDS011;54731;42.600;23.476;2022-07-22T08:38:26;8.73;;;4.40;;
67941;SDS011;54731;42.600;23.476;2022-07-22T08:40:53;9.97;;;4.37;;
67941;SDS011;54731;42.600;23.476;2022-07-22T08:43:20;13.85;;;5.22;;
67941;SDS011;54731;42.600;23.476;2022-07-22T08:45:46;11.32;;;4.13;;
67941;SDS011;54731;42.600;23.476;2022-07-22T08:48:13;6.85;;;4.45;;
67941;SDS011;54731;42.600;23.476;2022-07-22T08:50:39;8.77;;;4.80;;
67941;SDS011;54731;42.600;23.476;2022-07-22T08:53:04;6.67;;;4.40;;
67941;SDS011;54731;42.600;23.476;2022-07-22T08:55:30;9.93;;;5.18;;
67941;SDS011;54731;42.600;23.476;2022-07-22T08:57:55;11.52;;;4.53;;
67941;SDS011;54731;42.600;23.476;2022-07-22T09:00:21;9.30;;;4.30;;
67941;SDS011;54731;42.600;23.476;2022-07-22T09:02:47;10.45;;;4.80;;
67941;SDS011;54731;42.600;23.476;2022-07-22T09:05:14;7.57;;;4.70;;
67941;SDS011;54731;42.600;23.476;2022-07-22T09:07:41;7.68;;;4.13;;
67941;SDS011;54731;42.600;23.476;2022-07-22T09:10:16;10.40;;;4.70;;
67941;SDS011;54731;42.600;23.476;2022-07-22T09:12:54;11.25;;;4.47;;
67941;SDS011;54731;42.600;23.476;2022-07-22T09:18:19;7.43;;;4.07;;
67941;SDS011;54731;42.600;23.476;2022-07-22T09:20:45;9.40;;;4.55;;
67941;SDS011;54731;42.600;23.476;2022-07-22T09:23:12;16.88;;;4.97;;
67941;SDS011;54731;42.600;23.476;2022-07-22T09:25:39;10.43;;;4.80;;
67941;SDS011;54731;42.600;23.476;2022-07-22T09:30:32;8.73;;;4.10;;
67941;SDS011;54731;42.600;23.476;2022-07-22T09:33:03;7.25;;;3.85;;
67941;SDS011;54731;42.600;23.476;2022-07-22T09:35:29;11.88;;;4.65;;
67941;SDS011;54731;42.600;23.476;2022-07-22T09:37:59;7.93;;;4.78;;
67941;SDS011;54731;42.600;23.476;2022-07-22T09:42:56;7.93;;;4.80;;
67941;SDS011;54731;42.600;23.476;2022-07-22T09:45:24;6.07;;;4.60;;
67941;SDS011;54731;42.600;23.476;2022-07-22T09:47:53;8.00;;;4.00;;
67941;SDS011;54731;42.600;23.476;2022-07-22T09:50:29;5.38;;;4.43;;
67941;SDS011;54731;42.600;23.476;2022-07-22T09:52:57;8.35;;;4.45;;
67941;SDS011;54731;42.600;23.476;2022-07-22T09:55:25;6.55;;;4.15;;
67941;SDS011;54731;42.600;23.476;2022-07-22T09:57:52;9.85;;;4.55;;
67941;SDS011;54731;42.600;23.476;2022-07-22T10:00:19;8.65;;;5.03;;
67941;SDS011;54731;42.600;23.476;2022-07-22T10:05:19;8.55;;;4.40;;
67941;SDS011;54731;42.600;23.476;2022-07-22T10:07:46;7.80;;;4.50;;
67941;SDS011;54731;42.600;23.476;2022-07-22T10:10:13;13.70;;;5.10;;
67941;SDS011;54731;42.600;23.476;2022-07-22T10:12:41;7.22;;;4.68;;
67941;SDS011;54731;42.600;23.476;2022-07-22T10:15:07;7.20;;;4.75;;
67941;SDS011;54731;42.600;23.476;2022-07-22T10:17:38;5.63;;;4.63;;
67941;SDS011;54731;42.600;23.476;2022-07-22T10:20:07;9.82;;;4.53;;
67941;SDS011;54731;42.600;23.476;2022-07-22T10:25:09;8.35;;;5.15;;
67941;SDS011;54731;42.600;23.476;2022-07-22T10:30:28;7.43;;;4.43;;
67941;SDS011;54731;42.600;23.476;2022-07-22T10:33:10;6.07;;;4.28;;
67941;SDS011;54731;42.600;23.476;2022-07-22T10:35:49;7.10;;;4.65;;
67941;SDS011;54731;42.600;23.476;2022-07-22T10:38:17;8.57;;;4.50;;
67941;SDS011;54731;42.600;23.476;2022-07-22T10:43:46;8.52;;;4.47;;
67941;SDS011;54731;42.600;23.476;2022-07-22T10:46:13;9.73;;;4.65;;
67941;SDS011;54731;42.600;23.476;2022-07-22T10:56:33;8.02;;;5.00;;
67941;SDS011;54731;42.600;23.476;2022-07-22T11:01:38;9.00;;;5.18;;
67941;SDS011;54731;42.600;23.476;2022-07-22T11:04:28;7.72;;;5.03;;
67941;SDS011;54731;42.600;23.476;2022-07-22T11:06:55;9.32;;;4.60;;
67941;SDS011;54731;42.600;23.476;2022-07-22T11:09:22;8.65;;;5.10;;
67941;SDS011;54731;42.600;23.476;2022-07-22T11:11:55;8.47;;;4.40;;
67941;SDS011;54731;42.600;23.476;2022-07-22T11:16:58;10.60;;;5.00;;
67941;SDS011;54731;42.600;23.476;2022-07-22T11:19:29;9.35;;;4.68;;
67941;SDS011;54731;42.600;23.476;2022-07-22T11:21:58;8.48;;;4.78;;
67941;SDS011;54731;42.600;23.476;2022-07-22T11:24:27;10.93;;;4.50;;
67941;SDS011;54731;42.600;23.476;2022-07-22T11:26:54;12.80;;;4.90;;
67941;SDS011;54731;42.600;23.476;2022-07-22T11:29:30;16.48;;;5.28;;
67941;SDS011;54731;42.600;23.476;2022-07-22T11:32:02;9.73;;;5.63;;
67941;SDS011;54731;42.600;23.476;2022-07-22T11:34:29;9.75;;;5.28;;
67941;SDS011;54731;42.600;23.476;2022-07-22T11:36:55;8.13;;;4.13;;
67941;SDS011;54731;42.600;23.476;2022-07-22T11:39:22;9.80;;;5.28;;
67941;SDS011;54731;42.600;23.476;2022-07-22T11:41:52;12.37;;;4.63;;
67941;SDS011;54731;42.600;23.476;2022-07-22T11:44:19;9.05;;;5.45;;
67941;SDS011;54731;42.600;23.476;2022-07-22T11:46:46;8.48;;;4.88;;
67941;SDS011;54731;42.600;23.476;2022-07-22T11:49:16;12.00;;;5.18;;
67941;SDS011;54731;42.600;23.476;2022-07-22T11:51:45;7.38;;;5.00;;
67941;SDS011;54731;42.600;23.476;2022-07-22T11:54:12;7.78;;;4.95;;
67941;SDS011;54731;42.600;23.476;2022-07-22T11:56:38;10.23;;;5.20;;
67941;SDS011;54731;42.600;23.476;2022-07-22T11:59:04;7.10;;;4.65;;
67941;SDS011;54731;42.600;23.476;2022-07-22T12:01:31;10.30;;;6.03;;
67941;SDS011;54731;42.600;23.476;2022-07-22T12:04:00;6.07;;;4.63;;
67941;SDS011;54731;42.600;23.476;2022-07-22T12:06:28;6.43;;;5.05;;
67941;SDS011;54731;42.600;23.476;2022-07-22T12:09:06;8.98;;;4.68;;
67941;SDS011;54731;42.600;23.476;2022-07-22T12:11:37;7.53;;;4.53;;
67941;SDS011;54731;42.600;23.476;2022-07-22T12:14:15;7.50;;;5.47;;
67941;SDS011;54731;42.600;23.476;2022-07-22T12:16:43;7.60;;;4.47;;
67941;SDS011;54731;42.600;23.476;2022-07-22T12:19:18;5.72;;;4.65;;
67941;SDS011;54731;42.600;23.476;2022-07-22T12:26:56;6.13;;;4.38;;
67941;SDS011;54731;42.600;23.476;2022-07-22T12:29:30;5.75;;;4.65;;
67941;SDS011;54731;42.600;23.476;2022-07-22T12:32:11;6.57;;;4.72;;
67941;SDS011;54731;42.600;23.476;2022-07-22T12:34:56;15.93;;;5.30;;
67941;SDS011;54731;42.600;23.476;2022-07-22T12:37:47;6.22;;;5.00;;
67941;SDS011;54731;42.600;23.476;2022-07-22T12:40:19;8.60;;;4.82;;
67941;SDS011;54731;42.600;23.476;2022-07-22T12:42:58;6.25;;;4.68;;
67941;SDS011;54731;42.600;23.476;2022-07-22T12:45:26;10.45;;;5.10;;
67941;SDS011;54731;42.600;23.476;2022-07-22T12:48:11;10.20;;;4.90;;
67941;SDS011;54731;42.600;23.476;2022-07-22T12:53:07;6.78;;;4.70;;
67941;SDS011;54731;42.600;23.476;2022-07-22T12:58:17;8.10;;;5.00;;
67941;SDS011;54731;42.600;23.476;2022-07-22T13:00:47;6.83;;;4.83;;
67941;SDS011;54731;42.600;23.476;2022-07-22T13:03:14;7.82;;;5.50;;
67941;SDS011;54731;42.600;23.476;2022-07-22T13:05:40;9.13;;;4.95;;
67941;SDS011;54731;42.600;23.476;2022-07-22T13:08:06;7.27;;;4.60;;
67941;SDS011;54731;42.600;23.476;2022-07-22T13:10:32;10.70;;;5.28;;
67941;SDS011;54731;42.600;23.476;2022-07-22T13:12:57;7.83;;;4.63;;
67941;SDS011;54731;42.600;23.476;2022-07-22T13:15:23;10.02;;;5.40;;
67941;SDS011;54731;42.600;23.476;2022-07-22T13:17:49;9.23;;;4.80;;
67941;SDS011;54731;42.600;23.476;2022-07-22T13:20:15;11.52;;;5.28;;
67941;SDS011;54731;42.600;23.476;2022-07-22T13:22:42;8.23;;;4.80;;
67941;SDS011;54731;42.600;23.476;2022-07-22T13:25:11;6.40;;;4.73;;
67941;SDS011;54731;42.600;23.476;2022-07-22T13:27:37;9.20;;;4.65;;
67941;SDS011;54731;42.600;23.476;2022-07-22T13:30:03;8.57;;;5.17;;
67941;SDS011;54731;42.600;23.476;2022-07-22T13:32:29;7.20;;;5.53;;
67941;SDS011;54731;42.600;23.476;2022-07-22T13:34:54;6.40;;;4.77;;
67941;SDS011;54731;42.600;23.476;2022-07-22T13:37:20;5.80;;;5.13;;
67941;SDS011;54731;42.600;23.476;2022-07-22T13:39:46;8.37;;;4.40;;
67941;SDS011;54731;42.600;23.476;2022-07-22T13:42:13;8.20;;;5.13;;
67941;SDS011;54731;42.600;23.476;2022-07-22T13:44:42;8.57;;;4.88;;
67941;SDS011;54731;42.600;23.476;2022-07-22T13:47:08;9.60;;;4.90;;
67941;SDS011;54731;42.600;23.476;2022-07-22T13:49:33;6.88;;;5.18;;
67941;SDS011;54731;42.600;23.476;2022-07-22T13:51:58;6.23;;;5.13;;
67941;SDS011;54731;42.600;23.476;2022-07-22T13:54:24;6.03;;;5.10;;
67941;SDS011;54731;42.600;23.476;2022-07-22T13:56:49;12.53;;;5.53;;
67941;SDS011;54731;42.600;23.476;2022-07-22T13:59:15;6.93;;;4.95;;
67941;SDS011;54731;42.600;23.476;2022-07-22T14:01:42;7.73;;;5.87;;
67941;SDS011;54731;42.600;23.476;2022-07-22T14:04:08;9.35;;;4.63;;
67941;SDS011;54731;42.600;23.476;2022-07-22T14:06:33;6.43;;;4.82;;
67941;SDS011;54731;42.600;23.476;2022-07-22T14:08:59;9.35;;;4.88;;
67941;SDS011;54731;42.600;23.476;2022-07-22T14:11:25;6.13;;;5.05;;
67941;SDS011;54731;42.600;23.476;2022-07-22T14:13:50;8.63;;;4.87;;
67941;SDS011;54731;42.600;23.476;2022-07-22T14:16:16;8.73;;;5.33;;
67941;SDS011;54731;42.600;23.476;2022-07-22T14:19:04;8.60;;;5.18;;
67941;SDS011;54731;42.600;23.476;2022-07-22T14:21:31;10.15;;;5.13;;
67941;SDS011;54731;42.600;23.476;2022-07-22T14:23:57;10.38;;;4.88;;
67941;SDS011;54731;42.600;23.476;2022-07-22T14:26:22;6.10;;;5.10;;
67941;SDS011;54731;42.600;23.476;2022-07-22T14:28:48;6.97;;;4.80;;
67941;SDS011;54731;42.600;23.476;2022-07-22T14:31:14;6.03;;;4.82;;
67941;SDS011;54731;42.600;23.476;2022-07-22T14:33:39;8.85;;;4.72;;
67941;SDS011;54731;42.600;23.476;2022-07-22T14:36:05;8.03;;;5.03;;
67941;SDS011;54731;42.600;23.476;2022-07-22T14:38:31;8.27;;;4.63;;
67941;SDS011;54731;42.600;23.476;2022-07-22T14:40:56;9.90;;;5.10;;
67941;SDS011;54731;42.600;23.476;2022-07-22T14:43:21;10.80;;;4.80;;
67941;SDS011;54731;42.600;23.476;2022-07-22T14:45:47;11.00;;;5.07;;
67941;SDS011;54731;42.600;23.476;2022-07-22T14:48:12;7.33;;;4.73;;
67941;SDS011;54731;42.600;23.476;2022-07-22T14:50:38;7.53;;;4.27;;
67941;SDS011;54731;42.600;23.476;2022-07-22T14:53:03;16.50;;;5.70;;
67941;SDS011;54731;42.600;23.476;2022-07-22T14:55:29;7.65;;;4.70;;
67941;SDS011;54731;42.600;23.476;2022-07-22T14:57:54;9.10;;;5.40;;
67941;SDS011;54731;42.600;23.476;2022-07-22T15:00:19;9.93;;;4.53;;
67941;SDS011;54731;42.600;23.476;2022-07-22T15:02:45;9.20;;;4.77;;
67941;SDS011;54731;42.600;23.476;2022-07-22T15:05:11;7.30;;;4.13;;
67941;SDS011;54731;42.600;23.476;2022-07-22T15:07:36;11.00;;;5.03;;